This is the latest recevied weather packets stored in our database for station/object F1ZVN-13. If no packets are shown the sender has not sent any weather packets the latest 1 day(s).
| Time | Temp. | Humidity | Pressure | Rain* | Wind** | Luminosity | Snow |
|---|---|---|---|---|---|---|---|
| 1778088380 | 2.22° C | 95% | 1001.7 hPa | 0 mm | 0 m/s | - | - |
| 1778088138 | 2.22° C | 95% | 1001.7 hPa | 0 mm | 0 m/s | - | - |
| 1778088015 | 2.22° C | 96% | 1001.8 hPa | 0 mm | 0 m/s | - | - |
| 1778087221 | 2.78° C | 95% | 1001.8 hPa | 0 mm | 0 m/s | - | - |
| 1778087044 | 2.78° C | 96% | 1001.7 hPa | 0 mm | 0 m/s | - | - |
| 1778086440 | 2.22° C | 96% | 1001.7 hPa | 0 mm | 0 m/s | - | - |
| 1778085589 | 3.33° C | 96% | 1001.5 hPa | 0 mm | 0 m/s | - | - |
| 1778084134 | 2.78° C | 90% | 1001.7 hPa | 0 mm | 0 m/s | - | - |
| 1778084014 | 2.78° C | 91% | 1001.7 hPa | 0 mm | 0 m/s | - | - |
| 1778083649 | 2.78° C | 94% | 1001.7 hPa | 0 mm | 0 m/s | - | - |
| 1778082679 | 3.33° C | 85% | 1001.7 hPa | 0 mm | 0 m/s | - | - |
| 1778082077 | 3.33° C | 82% | 1001.7 hPa | 0 mm | 0 m/s | - | - |
| 1778081346 | 3.89° C | 83% | 1001.5 hPa | 0 mm | 0 m/s | - | - |
| 1778081226 | 3.89° C | 83% | 1001.4 hPa | 0 mm | 0 m/s | - | - |
| 1778080981 | 3.89° C | 84% | 1001.4 hPa | 0 mm | 0 m/s | - | - |
| 1778080134 | 3.89° C | 88% | 1001.4 hPa | 0 mm | 0 m/s | - | - |
| 1778080012 | 4.44° C | 86% | 1001.4 hPa | 0 mm | 0 m/s | - | - |
| 1778079776 | 5° C | 84% | 1001.3 hPa | 0 mm | 0 m/s | - | - |
| 1778079649 | 5° C | 87% | 1001.3 hPa | 0 mm | 0 m/s | - | - |
| 1778079530 | 4.44° C | 86% | 1001.3 hPa | 0 mm | 0 m/s | - | - |
| 1778079164 | 5.56° C | 86% | 1001.1 hPa | 0 mm | 0 m/s | - | - |
| 1778078843 | 5.56° C | 86% | 1001.1 hPa | 0 mm | 0 m/s | - | - |
| 1778078800 | 5.56° C | 86% | 1001.1 hPa | 0 mm | 0 m/s | - | - |
| 1778078194 | 5.56° C | 86% | 1001.4 hPa | 0 mm | 0 m/s | - | - |
| 1778078103 | 5.56° C | 85% | 1001.5 hPa | 0 mm | 0 m/s | - | - |
* Rain latest hour (hover to see other rain measurements)
** Current wind speed in m/s (hover to see current wind gust speed)